createdAt,value
2019-03-27T00:01:50.243Z,7.18
2019-03-27T00:06:57.953Z,8.12
2019-03-27T00:12:05.706Z,7.47
2019-03-27T00:17:13.376Z,7.10
2019-03-27T00:22:21.109Z,7.63
2019-03-27T00:27:28.845Z,8.10
2019-03-27T00:32:36.636Z,7.78
2019-03-27T00:37:44.291Z,8.51
2019-03-27T00:42:52.885Z,8.34
2019-03-27T00:48:00.752Z,8.26
2019-03-27T00:53:08.389Z,7.47
2019-03-27T00:58:17.088Z,8.46
2019-03-27T01:03:24.789Z,8.37
2019-03-27T01:08:32.582Z,8.28
2019-03-27T01:13:40.396Z,8.34
2019-03-27T01:18:48.152Z,7.32
2019-03-27T01:23:55.766Z,9.08
2019-03-27T01:29:03.477Z,8.55
2019-03-27T01:34:11.075Z,8.97
2019-03-27T01:39:18.962Z,8.86
2019-03-27T01:44:26.658Z,8.71
2019-03-27T01:49:34.477Z,8.57
2019-03-27T01:54:42.057Z,8.56
2019-03-27T01:59:49.776Z,8.65
2019-03-27T02:04:57.507Z,8.35
2019-03-27T02:10:06.346Z,8.86
2019-03-27T02:15:13.918Z,8.36
2019-03-27T02:20:21.777Z,8.84
2019-03-27T02:25:29.352Z,9.38
2019-03-27T02:30:37.156Z,8.92
2019-03-27T02:35:44.754Z,8.49
2019-03-27T02:40:52.407Z,8.92
2019-03-27T02:46:00.082Z,8.75
2019-03-27T02:51:07.792Z,8.10
2019-03-27T02:56:15.555Z,8.97
2019-03-27T03:01:23.278Z,9.57
2019-03-27T03:06:30.982Z,9.18
2019-03-27T03:11:39.462Z,9.71
2019-03-27T03:16:47.076Z,9.11
2019-03-27T03:21:55.032Z,8.24
2019-03-27T03:27:02.629Z,9.10
2019-03-27T03:32:10.399Z,8.39
2019-03-27T03:37:17.965Z,8.96
2019-03-27T03:42:25.999Z,9.57
2019-03-27T03:47:33.708Z,9.85
2019-03-27T03:52:45.649Z,8.63
2019-03-27T03:57:48.906Z,8.73
2019-03-27T04:02:56.669Z,8.64
2019-03-27T04:08:04.274Z,8.79
2019-03-27T04:13:12.084Z,8.87
2019-03-27T04:18:19.718Z,8.68
2019-03-27T04:23:28.402Z,9.02
2019-03-27T04:28:36.051Z,9.27
2019-03-27T04:33:44.226Z,9.53
2019-03-27T04:38:52.399Z,9.52
2019-03-27T04:44:00.226Z,9.71
2019-03-27T04:49:07.927Z,9.70
2019-03-27T04:54:15.742Z,11.31
2019-03-27T04:59:23.335Z,11.89
2019-03-27T05:04:31.239Z,12.57
2019-03-27T05:09:38.937Z,12.49
2019-03-27T05:14:46.905Z,12.55
2019-03-27T05:19:54.533Z,13.47
2019-03-27T05:25:03.127Z,13.87
2019-03-27T05:30:10.866Z,14.01
2019-03-27T05:35:19.436Z,15.94
2019-03-27T05:45:31.814Z,14.87
2019-03-27T05:50:39.409Z,13.15
2019-03-27T05:55:47.759Z,14.36
2019-03-27T06:00:55.701Z,14.14
2019-03-27T06:06:04.205Z,14.95
2019-03-27T06:11:11.819Z,15.22
2019-03-27T06:16:19.777Z,15.08
2019-03-27T06:21:27.473Z,14.68
2019-03-27T06:26:35.881Z,15.35
2019-03-27T06:31:43.573Z,15.87
2019-03-27T06:36:51.501Z,15.70
2019-03-27T06:41:59.239Z,16.47
2019-03-27T06:47:07.016Z,17.11
2019-03-27T06:52:14.647Z,16.79
2019-03-27T06:57:23.455Z,16.81
2019-03-27T07:02:31.023Z,15.87
2019-03-27T07:07:38.789Z,16.22
2019-03-27T07:12:46.500Z,15.90
2019-03-27T07:17:54.169Z,14.53
2019-03-27T07:23:01.754Z,14.48
2019-03-27T07:28:09.534Z,16.63
2019-03-27T07:33:17.155Z,16.72
2019-03-27T07:38:25.557Z,16.33
2019-03-27T07:43:33.437Z,16.97
2019-03-27T07:48:53.313Z,17.55
2019-03-27T07:53:48.506Z,17.68
2019-03-27T07:58:59.458Z,17.81
2019-03-27T08:04:03.380Z,17.73
2019-03-27T08:09:11.151Z,15.98
2019-03-27T08:14:19.004Z,16.31
2019-03-27T08:19:26.732Z,14.75
2019-03-27T08:24:34.369Z,14.20
2019-03-27T08:29:42.017Z,13.02
2019-03-27T08:34:49.994Z,12.24
2019-03-27T08:39:57.914Z,10.86
2019-03-27T08:45:05.535Z,9.80
2019-03-27T08:50:13.256Z,9.06
2019-03-27T08:55:20.883Z,9.24
2019-03-27T09:00:28.555Z,9.03
2019-03-27T09:05:36.180Z,8.44
2019-03-27T09:10:43.781Z,8.17
2019-03-27T09:15:51.393Z,7.20
2019-03-27T09:20:59.097Z,7.26
2019-03-27T09:26:06.786Z,6.79
2019-03-27T09:31:14.450Z,6.87
2019-03-27T09:36:22.182Z,5.80
2019-03-27T09:41:29.868Z,5.11
2019-03-27T09:46:37.661Z,5.84
2019-03-27T09:51:45.349Z,5.71
2019-03-27T09:56:53.020Z,5.11
2019-03-27T10:02:00.748Z,5.50
2019-03-27T10:07:08.517Z,4.87
2019-03-27T10:12:16.381Z,4.60
2019-03-27T10:17:24.053Z,4.72
2019-03-27T10:22:31.888Z,4.99
2019-03-27T10:27:39.507Z,4.95
2019-03-27T10:32:47.365Z,4.74
2019-03-27T10:37:55.097Z,4.35
2019-03-27T10:43:02.871Z,4.42
2019-03-27T10:48:10.470Z,4.70
2019-03-27T10:53:19.318Z,4.25
2019-03-27T10:58:26.914Z,3.57
2019-03-27T11:03:34.779Z,3.87
2019-03-27T11:08:42.493Z,3.99
2019-03-27T11:13:50.126Z,4.02
2019-03-27T11:18:57.793Z,3.92
2019-03-27T11:24:05.470Z,3.90
2019-03-27T11:29:13.242Z,3.76
2019-03-27T11:34:20.979Z,3.49
2019-03-27T11:39:28.598Z,3.64
2019-03-27T11:44:36.341Z,3.34
2019-03-27T11:49:43.926Z,3.27
2019-03-27T11:54:51.697Z,3.60
2019-03-27T11:59:59.460Z,3.20
2019-03-27T12:05:07.225Z,3.48
2019-03-27T12:10:14.974Z,3.33
2019-03-27T12:15:22.605Z,3.05
2019-03-27T12:20:30.361Z,2.80
2019-03-27T12:25:38.253Z,3.16
2019-03-27T12:30:45.889Z,3.38
2019-03-27T12:35:53.493Z,3.16
2019-03-27T12:41:01.081Z,2.99
2019-03-27T12:46:08.849Z,3.08
2019-03-27T12:51:16.505Z,3.03
2019-03-27T12:56:24.093Z,3.24
2019-03-27T13:01:31.781Z,3.82
2019-03-27T13:06:39.408Z,4.10
2019-03-27T13:11:47.185Z,4.49
2019-03-27T13:16:54.842Z,4.20
2019-03-27T13:22:02.441Z,4.35
2019-03-27T13:27:10.041Z,4.32
2019-03-27T13:32:18.541Z,4.25
2019-03-27T13:37:26.278Z,4.68
2019-03-27T13:42:34.009Z,5.08
2019-03-27T13:47:41.610Z,5.29
2019-03-27T13:52:49.284Z,5.28
2019-03-27T13:57:57.005Z,5.18
2019-03-27T14:03:04.777Z,6.11
2019-03-27T14:08:12.382Z,5.87
2019-03-27T14:13:20.016Z,5.45
2019-03-27T14:18:27.755Z,6.04
2019-03-27T14:23:35.361Z,6.22
2019-03-27T14:28:43.049Z,6.38
2019-03-27T14:33:50.767Z,6.14
2019-03-27T14:38:58.479Z,5.83
2019-03-27T14:44:07.029Z,5.47
2019-03-27T14:49:14.652Z,5.23
2019-03-27T14:54:22.246Z,5.17
2019-03-27T14:59:29.905Z,5.53
2019-03-27T15:04:37.557Z,5.84
2019-03-27T15:09:46.212Z,5.77
2019-03-27T15:14:53.927Z,6.13
2019-03-27T15:20:01.678Z,5.75
2019-03-27T15:25:09.360Z,6.59
2019-03-27T15:30:17.231Z,6.59
2019-03-27T15:35:24.981Z,7.02
2019-03-27T15:40:32.730Z,6.40
2019-03-27T15:45:40.501Z,7.24
2019-03-27T15:50:55.506Z,7.22
2019-03-27T15:55:55.745Z,6.87
2019-03-27T16:01:03.323Z,7.70
2019-03-27T16:06:11.146Z,7.08
2019-03-27T16:11:18.934Z,6.79
2019-03-27T16:16:26.593Z,6.91
2019-03-27T16:21:37.429Z,6.15
2019-03-27T16:26:41.480Z,6.28
2019-03-27T16:31:49.398Z,6.75
2019-03-27T16:36:57.004Z,6.49
2019-03-27T16:42:05.422Z,6.42
2019-03-27T16:47:13.057Z,5.83
2019-03-27T16:52:20.829Z,5.83
2019-03-27T16:57:28.465Z,5.33
2019-03-27T17:02:36.216Z,5.23
2019-03-27T17:07:43.794Z,4.97
2019-03-27T17:12:51.407Z,4.46
2019-03-27T17:17:59.035Z,4.46
2019-03-27T17:23:17.316Z,4.81
2019-03-27T17:28:14.047Z,4.61
2019-03-27T17:33:21.705Z,5.14
2019-03-27T17:38:29.383Z,5.09
2019-03-27T17:43:37.189Z,4.88
2019-03-27T17:48:44.790Z,4.73
2019-03-27T17:53:52.797Z,5.07
2019-03-27T17:59:00.405Z,4.75
2019-03-27T18:04:08.058Z,4.72
2019-03-27T18:09:15.785Z,4.94
2019-03-27T18:14:23.641Z,4.89
2019-03-27T18:19:31.353Z,5.10
2019-03-27T18:24:39.066Z,4.75
2019-03-27T18:29:46.642Z,5.28
2019-03-27T18:34:54.393Z,5.52
2019-03-27T18:40:01.965Z,4.73
2019-03-27T18:45:09.605Z,4.67
2019-03-27T18:50:17.284Z,4.93
2019-03-27T18:55:26.953Z,5.81
2019-03-27T19:00:32.653Z,6.10
2019-03-27T19:05:40.190Z,5.92
2019-03-27T19:10:47.801Z,6.37
2019-03-27T19:15:55.409Z,5.67
2019-03-27T19:21:03.082Z,5.81
2019-03-27T19:26:10.848Z,5.98
2019-03-27T19:31:18.456Z,5.83
2019-03-27T19:36:26.128Z,5.49
2019-03-27T19:41:33.801Z,5.60
2019-03-27T19:46:41.437Z,5.64
2019-03-27T19:51:49.199Z,5.54
2019-03-27T19:56:56.789Z,6.22
2019-03-27T20:02:04.387Z,5.42
2019-03-27T20:07:12.172Z,5.49
2019-03-27T20:12:19.795Z,5.44
2019-03-27T20:17:27.450Z,5.59
2019-03-27T20:22:35.030Z,5.55
2019-03-27T20:27:43.145Z,5.73
2019-03-27T20:32:50.856Z,5.49
2019-03-27T20:37:58.715Z,5.53
2019-03-27T20:43:06.326Z,5.29
2019-03-27T20:48:14.127Z,4.78
2019-03-27T20:53:21.818Z,5.29
2019-03-27T20:58:29.513Z,4.92
2019-03-27T21:03:37.217Z,4.72
2019-03-27T21:08:45.044Z,5.46
2019-03-27T21:13:52.675Z,5.23
2019-03-27T21:19:00.402Z,4.83
2019-03-27T21:24:08.104Z,5.73
2019-03-27T21:29:15.710Z,4.96
2019-03-27T21:34:23.422Z,5.00
2019-03-27T21:39:31.122Z,4.91
2019-03-27T21:44:38.780Z,4.88
2019-03-27T21:49:46.543Z,5.17
2019-03-27T21:54:54.301Z,4.91
2019-03-27T22:00:01.913Z,5.36
2019-03-27T22:05:09.776Z,5.28
2019-03-27T22:10:17.325Z,5.07
2019-03-27T22:15:24.962Z,4.96
2019-03-27T22:20:32.586Z,5.55
2019-03-27T22:25:40.319Z,5.57
2019-03-27T22:30:47.902Z,5.25
2019-03-27T22:35:55.942Z,5.34
2019-03-27T22:41:03.730Z,5.75
2019-03-27T22:46:11.391Z,5.17
2019-03-27T22:51:19.292Z,5.49
2019-03-27T22:56:26.857Z,5.89
2019-03-27T23:01:34.437Z,5.70
2019-03-27T23:06:42.126Z,5.82
2019-03-27T23:11:49.899Z,6.21
2019-03-27T23:16:57.641Z,6.36
2019-03-27T23:22:05.344Z,6.46
2019-03-27T23:27:16.116Z,6.84
2019-03-27T23:32:13.725Z,6.72
2019-03-27T23:37:21.340Z,6.63
2019-03-27T23:43:04.924Z,7.39
2019-03-27T23:48:12.541Z,6.91
2019-03-27T23:53:20.325Z,7.10
2019-03-27T23:58:28.476Z,7.28
